createdAt,value
2019-01-28T00:00:45.737Z,88.57
2019-01-28T00:01:45.654Z,88.51
2019-01-28T00:02:45.454Z,88.55
2019-01-28T00:03:45.352Z,88.42
2019-01-28T00:04:45.765Z,88.38
2019-01-28T00:05:46.081Z,88.48
2019-01-28T00:06:45.485Z,88.64
2019-01-28T00:07:45.478Z,88.74
2019-01-28T00:08:45.587Z,88.71
2019-01-28T00:09:45.597Z,88.72
2019-01-28T00:10:45.501Z,88.69
2019-01-28T00:11:45.358Z,88.67
2019-01-28T00:12:45.495Z,88.72
2019-01-28T00:13:45.546Z,88.74
2019-01-28T00:14:45.501Z,88.4
2019-01-28T00:15:45.497Z,88.69
2019-01-28T00:16:45.332Z,88.57
2019-01-28T00:17:47.108Z,88.71
2019-01-28T00:18:45.495Z,88.68
2019-01-28T00:19:45.555Z,88.85
2019-01-28T00:20:45.452Z,88.79
2019-01-28T00:21:47.194Z,88.76
2019-01-28T00:22:45.386Z,88.98
2019-01-28T00:23:47.203Z,89.08
2019-01-28T00:24:45.417Z,89.04
2019-01-28T00:25:45.414Z,89.05
2019-01-28T00:26:45.605Z,89.15
2019-01-28T00:27:45.379Z,89.09
2019-01-28T00:28:45.158Z,89.26
2019-01-28T00:29:45.456Z,89.11
2019-01-28T00:30:45.566Z,89.24
2019-01-28T00:31:45.441Z,89.17
2019-01-28T00:32:45.765Z,89.21
2019-01-28T00:33:45.365Z,89.35
2019-01-28T00:34:45.521Z,89.24
2019-01-28T00:35:45.339Z,89.2
2019-01-28T00:36:45.549Z,89.37
2019-01-28T00:37:45.577Z,89.36
2019-01-28T00:38:45.423Z,89.55
2019-01-28T00:39:45.586Z,89.44
2019-01-28T00:40:45.634Z,89.5
2019-01-28T00:41:45.315Z,89.43
2019-01-28T00:42:45.565Z,89.62
2019-01-28T00:43:45.365Z,89.4
2019-01-28T00:44:45.329Z,89.56
2019-01-28T00:45:45.517Z,89.5
2019-01-28T00:46:45.284Z,89.5
2019-01-28T00:47:45.433Z,89.54
2019-01-28T00:48:45.384Z,89.6
2019-01-28T00:49:45.668Z,89.55
2019-01-28T00:50:45.409Z,89.49
2019-01-28T00:51:45.579Z,89.48
2019-01-28T00:52:45.356Z,89.27
2019-01-28T00:53:45.623Z,89.33
2019-01-28T00:54:45.396Z,89.25
2019-01-28T00:55:47.101Z,89.17
2019-01-28T00:56:45.313Z,89.25
2019-01-28T00:57:45.408Z,89.2
2019-01-28T00:58:45.525Z,89.2
2019-01-28T00:59:46.057Z,89.05
2019-01-28T01:00:45.287Z,89.15
2019-01-28T01:01:45.550Z,88.99
2019-01-28T01:02:45.352Z,89.02
2019-01-28T01:03:45.296Z,88.87
2019-01-28T01:04:45.305Z,88.89
2019-01-28T01:05:45.367Z,88.83
2019-01-28T01:06:45.383Z,88.87
2019-01-28T01:07:45.273Z,88.91
2019-01-28T01:08:45.688Z,88.82
2019-01-28T01:09:45.401Z,88.6
2019-01-28T01:10:45.298Z,88.57
2019-01-28T01:11:45.423Z,88.75
2019-01-28T01:12:45.328Z,88.59
2019-01-28T01:13:45.377Z,88.54
2019-01-28T01:14:45.285Z,88.33
2019-01-28T01:15:45.316Z,88.33
2019-01-28T01:16:45.299Z,88.23
2019-01-28T01:17:45.282Z,88.22
2019-01-28T01:18:45.389Z,87.9
2019-01-28T01:19:45.304Z,87.93
2019-01-28T01:20:45.302Z,87.78
2019-01-28T01:21:45.297Z,87.7
2019-01-28T01:22:45.366Z,87.52
2019-01-28T01:23:45.486Z,87.24
2019-01-28T01:24:45.374Z,87.25
2019-01-28T01:25:45.605Z,87.02
2019-01-28T01:26:47.060Z,87.15
2019-01-28T01:27:45.247Z,86.91
2019-01-28T01:28:47.055Z,86.93
2019-01-28T01:29:45.527Z,86.63
2019-01-28T01:30:45.506Z,86.69
2019-01-28T01:31:45.642Z,86.65
2019-01-28T01:32:45.362Z,86.74
2019-01-28T01:33:45.211Z,86.53
2019-01-28T01:34:45.205Z,86.51
2019-01-28T01:35:45.284Z,86.53
2019-01-28T01:36:45.498Z,86.53
2019-01-28T01:37:45.254Z,86.66
2019-01-28T01:38:45.251Z,86.51
2019-01-28T01:39:45.319Z,86.67
2019-01-28T01:40:45.721Z,86.43
2019-01-28T01:41:45.545Z,86.5
2019-01-28T01:42:45.434Z,86.33
2019-01-28T01:43:45.305Z,86.25
2019-01-28T01:44:45.355Z,86.41
2019-01-28T01:45:45.381Z,86.26
2019-01-28T01:46:45.195Z,86.08
2019-01-28T01:47:45.363Z,86.12
2019-01-28T01:48:45.307Z,86.19
2019-01-28T01:49:45.211Z,86.13
2019-01-28T01:50:46.215Z,85.93
2019-01-28T01:51:45.499Z,85.96
2019-01-28T01:52:45.321Z,85.94
2019-01-28T01:53:45.346Z,85.99
2019-01-28T01:54:45.502Z,85.82
2019-01-28T01:55:45.504Z,85.84
2019-01-28T01:56:47.006Z,85.8
2019-01-28T01:57:45.263Z,85.74
2019-01-28T01:58:45.286Z,85.85
2019-01-28T01:59:45.226Z,85.6
2019-01-28T02:00:45.632Z,85.62
2019-01-28T02:01:45.184Z,85.46
2019-01-28T02:02:45.450Z,85.51
2019-01-28T02:03:45.238Z,85.53
2019-01-28T02:04:45.398Z,85.56
2019-01-28T02:05:45.595Z,85.53
2019-01-28T02:06:45.787Z,85.66
2019-01-28T02:07:45.236Z,85.49
2019-01-28T02:08:45.155Z,85.56
2019-01-28T02:09:45.337Z,85.49
2019-01-28T02:10:45.352Z,85.53
2019-01-28T02:11:47.060Z,85.47
2019-01-28T02:12:45.527Z,85.4
2019-01-28T02:13:45.436Z,85.47
2019-01-28T02:14:46.979Z,85.39
2019-01-28T02:15:45.454Z,85.01
2019-01-28T02:16:45.145Z,85.34
2019-01-28T02:17:45.467Z,85.11
2019-01-28T02:18:45.161Z,85.18
2019-01-28T02:19:45.625Z,85.11
2019-01-28T02:20:45.355Z,85.31
2019-01-28T02:21:45.337Z,85.34
2019-01-28T02:22:45.592Z,85.32
2019-01-28T02:23:45.606Z,85.31
2019-01-28T02:24:45.711Z,85.22
2019-01-28T02:25:45.362Z,85.3
2019-01-28T02:26:45.284Z,85.13
2019-01-28T02:27:45.643Z,85.11
2019-01-28T02:28:45.153Z,84.94
2019-01-28T02:34:45.267Z,85.03
2019-01-28T02:35:45.255Z,84.73
2019-01-28T02:36:44.979Z,85.09
2019-01-28T02:37:44.923Z,84.92
2019-01-28T02:38:45.034Z,85.07
2019-01-28T02:39:45.468Z,85.04
2019-01-28T02:40:44.869Z,84.91
2019-01-28T02:41:45.717Z,85.06
2019-01-28T02:42:44.910Z,85.07
2019-01-28T02:43:44.940Z,84.86
2019-01-28T02:44:45.015Z,84.78
2019-01-28T02:45:44.959Z,84.54
2019-01-28T02:46:44.973Z,84.64
2019-01-28T02:47:44.957Z,84.66
2019-01-28T02:48:44.946Z,84.72
2019-01-28T02:49:45.462Z,84.85
2019-01-28T02:50:44.979Z,84.91
2019-01-28T02:51:45.066Z,84.95
2019-01-28T02:52:44.899Z,84.99
2019-01-28T02:53:44.950Z,84.88
2019-01-28T02:54:44.951Z,84.88
2019-01-28T02:55:44.966Z,84.73
2019-01-28T02:56:44.940Z,84.68
2019-01-28T02:57:44.958Z,84.9
2019-01-28T02:58:44.911Z,84.91
2019-01-28T02:59:44.957Z,84.88
2019-01-28T03:00:45.026Z,85.1
2019-01-28T03:01:44.900Z,85.03
2019-01-28T03:02:44.905Z,84.99
2019-01-28T03:03:44.855Z,84.97
2019-01-28T03:04:45.143Z,85.08
2019-01-28T03:05:44.853Z,85.23
2019-01-28T03:06:44.938Z,85.3
2019-01-28T03:07:46.526Z,85.23
2019-01-28T03:08:44.887Z,85.38
2019-01-28T03:09:44.970Z,85.28
2019-01-28T03:10:44.933Z,85.42
2019-01-28T03:11:44.817Z,85.5
2019-01-28T03:12:45.095Z,85.69
2019-01-28T03:13:44.886Z,85.79
2019-01-28T03:14:45.115Z,85.78
2019-01-28T03:15:44.863Z,85.92
2019-01-28T03:16:45.444Z,86.09
2019-01-28T03:17:45.674Z,86.12
2019-01-28T03:18:44.832Z,85.85
2019-01-28T03:19:45.068Z,86.01
2019-01-28T03:20:45.984Z,86.08
2019-01-28T03:21:45.212Z,86.08
2019-01-28T03:22:45.399Z,86.28
2019-01-28T03:23:44.852Z,86.39
2019-01-28T03:24:44.938Z,86.49
2019-01-28T03:25:44.907Z,86.43
2019-01-28T03:26:45.089Z,86.48
2019-01-28T03:27:45.213Z,86.47
2019-01-28T03:28:45.009Z,86.55
2019-01-28T03:29:45.208Z,86.63
2019-01-28T03:30:44.793Z,86.87
2019-01-28T03:31:44.886Z,86.86
2019-01-28T03:32:44.799Z,87.04
2019-01-28T03:33:45.065Z,87.04
2019-01-28T03:34:45.039Z,87.12
2019-01-28T03:35:44.797Z,87.08
2019-01-28T03:36:45.075Z,87.08
2019-01-28T03:37:44.789Z,87.13
2019-01-28T03:38:44.901Z,87.3
2019-01-28T03:39:44.955Z,87.38
2019-01-28T03:40:44.797Z,87.65
2019-01-28T03:41:44.987Z,87.51
2019-01-28T03:42:45.305Z,87.48
2019-01-28T03:43:45.126Z,87.68
2019-01-28T03:44:45.209Z,87.68
2019-01-28T03:45:45.027Z,87.7
2019-01-28T03:46:45.089Z,87.78
2019-01-28T03:47:45.044Z,87.99
2019-01-28T03:48:44.788Z,88
2019-01-28T03:49:44.911Z,88.18
2019-01-28T03:50:45.086Z,88.17
2019-01-28T03:51:44.892Z,88.37
2019-01-28T03:52:45.067Z,88.52
2019-01-28T03:53:44.795Z,88.72
2019-01-28T03:54:44.978Z,88.82
2019-01-28T03:55:45.291Z,88.87
2019-01-28T03:56:44.984Z,88.96
2019-01-28T03:57:45.401Z,89.07
2019-01-28T03:58:44.969Z,89.15
2019-01-28T03:59:45.116Z,89.32
2019-01-28T04:00:44.741Z,89.41
2019-01-28T04:01:45.025Z,89.62
2019-01-28T04:02:44.845Z,89.7
2019-01-28T04:03:45.352Z,89.71
2019-01-28T04:04:45.046Z,89.81
2019-01-28T04:05:45.045Z,90.16
2019-01-28T04:06:45.053Z,90.03
2019-01-28T04:07:44.874Z,89.96
2019-01-28T04:08:45.879Z,89.97
2019-01-28T04:09:44.974Z,90.06
2019-01-28T04:10:44.824Z,90.11
2019-01-28T04:11:44.985Z,90.09
2019-01-28T04:12:46.545Z,90.21
2019-01-28T04:13:44.999Z,90.24
2019-01-28T04:14:45.224Z,90.32
2019-01-28T04:15:44.915Z,90.46
2019-01-28T04:16:44.757Z,90.54
2019-01-28T04:17:44.726Z,90.58
2019-01-28T04:18:46.552Z,90.69
2019-01-28T04:19:45.067Z,90.55
2019-01-28T04:20:44.843Z,90.35
2019-01-28T04:21:44.730Z,90.66
2019-01-28T04:22:44.959Z,90.69
2019-01-28T04:23:44.796Z,90.81
2019-01-28T04:24:44.718Z,90.74
2019-01-28T04:25:44.773Z,90.72
2019-01-28T04:26:44.798Z,90.8
2019-01-28T04:27:44.742Z,90.78
2019-01-28T04:28:44.717Z,90.74
2019-01-28T04:29:44.868Z,90.83
2019-01-28T04:30:45.018Z,90.91
2019-01-28T04:31:44.776Z,90.92
2019-01-28T04:32:44.733Z,90.8
2019-01-28T04:33:44.748Z,91.01
2019-01-28T04:34:44.721Z,90.95
2019-01-28T04:35:45.457Z,90.83
2019-01-28T04:36:45.056Z,90.9
2019-01-28T04:37:44.713Z,90.88
2019-01-28T04:38:44.814Z,90.88
2019-01-28T04:39:44.727Z,90.84
2019-01-28T04:40:45.307Z,90.86
2019-01-28T04:41:44.687Z,90.87
2019-01-28T04:42:44.921Z,90.86
2019-01-28T04:43:45.009Z,90.89
2019-01-28T04:44:45.018Z,91.06
2019-01-28T04:45:45.877Z,91.08
2019-01-28T04:46:45.025Z,91.03
2019-01-28T04:47:44.932Z,90.99
2019-01-28T04:48:58.657Z,91.11
2019-01-28T04:49:44.933Z,91.17
2019-01-28T04:50:44.947Z,91.19
2019-01-28T04:51:44.902Z,91.35
2019-01-28T04:52:44.689Z,91.19
2019-01-28T04:53:44.662Z,91.22
2019-01-28T04:54:44.843Z,91.09
2019-01-28T04:55:44.786Z,91.27
2019-01-28T04:56:44.763Z,91.35
2019-01-28T04:57:44.714Z,91.39
2019-01-28T04:58:45.317Z,91.45
2019-01-28T04:59:44.916Z,91.56
2019-01-28T05:00:44.638Z,91.41
2019-01-28T05:01:44.932Z,91.38
2019-01-28T05:02:44.945Z,91.37
2019-01-28T05:03:44.660Z,91.41
2019-01-28T05:04:44.736Z,91.37
2019-01-28T05:05:44.764Z,91.33
2019-01-28T05:06:45.070Z,91.29
2019-01-28T05:07:44.656Z,91.3
2019-01-28T05:08:45.072Z,91.12
2019-01-28T05:09:44.840Z,91.12
2019-01-28T05:10:44.644Z,91.2
2019-01-28T05:11:44.673Z,91.11
2019-01-28T05:12:45.003Z,91.25
2019-01-28T05:13:44.913Z,91.28
2019-01-28T05:14:45.028Z,91.17
2019-01-28T05:15:45.646Z,91.22
2019-01-28T05:16:44.753Z,91.39
2019-01-28T05:17:45.348Z,91.42
2019-01-28T05:18:45.043Z,91.29
2019-01-28T05:19:44.664Z,91.47
2019-01-28T05:20:44.715Z,91.47
2019-01-28T05:21:44.663Z,91.47
2019-01-28T05:22:44.716Z,91.62
2019-01-28T05:23:44.875Z,91.78
2019-01-28T05:24:44.642Z,91.69
2019-01-28T05:25:44.633Z,91.66
2019-01-28T05:26:44.738Z,91.65
2019-01-28T05:27:44.735Z,91.87
2019-01-28T05:28:44.672Z,91.79
2019-01-28T05:29:44.811Z,91.86
2019-01-28T05:30:44.933Z,91.84
2019-01-28T05:31:44.943Z,91.81
2019-01-28T05:32:44.639Z,91.84
2019-01-28T05:33:44.691Z,91.87
2019-01-28T05:34:44.964Z,91.92
2019-01-28T05:35:44.678Z,91.81
2019-01-28T05:36:44.637Z,91.88
2019-01-28T05:37:44.667Z,91.93
2019-01-28T05:38:44.881Z,91.97
2019-01-28T05:39:44.891Z,91.98
2019-01-28T05:40:44.637Z,91.95
2019-01-28T05:41:44.694Z,92.14
2019-01-28T05:42:44.580Z,92.13
2019-01-28T05:43:44.593Z,92.19
2019-01-28T05:44:44.921Z,92.09
2019-01-28T05:45:44.689Z,92.12
2019-01-28T05:46:46.421Z,92.16
2019-01-28T05:47:44.868Z,92.22
2019-01-28T05:48:44.654Z,92.19
2019-01-28T05:49:44.786Z,92.42
2019-01-28T05:50:45.166Z,92.34
2019-01-28T05:51:46.462Z,92.29
2019-01-28T05:52:44.975Z,92.31
2019-01-28T05:53:44.871Z,92.48
2019-01-28T05:54:44.883Z,92.57
2019-01-28T05:55:44.986Z,92.38
2019-01-28T05:56:44.569Z,92.34
2019-01-28T05:57:44.606Z,92.23
2019-01-28T05:58:44.687Z,92.18
2019-01-28T05:59:44.561Z,92.28
2019-01-28T06:00:45.029Z,92.29
2019-01-28T06:01:44.654Z,92.34
2019-01-28T06:02:44.719Z,92.3
2019-01-28T06:03:44.551Z,92.15
2019-01-28T06:04:44.620Z,92.02
2019-01-28T06:05:44.591Z,92.03
2019-01-28T06:06:44.601Z,92.15
2019-01-28T06:07:44.577Z,92.1
2019-01-28T06:08:44.593Z,92.21
2019-01-28T06:09:44.611Z,92.14
2019-01-28T06:10:44.616Z,92.2
2019-01-28T06:11:44.562Z,92.13
2019-01-28T06:12:44.641Z,92.12
2019-01-28T06:13:44.566Z,92.03
2019-01-28T06:14:44.548Z,92.14
2019-01-28T06:15:44.545Z,92.07
2019-01-28T06:16:44.552Z,92.14
2019-01-28T06:17:44.542Z,92.14
2019-01-28T06:18:44.543Z,92.09
2019-01-28T06:19:44.559Z,92.15
2019-01-28T06:20:44.526Z,92.12
2019-01-28T06:21:44.993Z,92.19
2019-01-28T06:22:44.575Z,92.01
2019-01-28T06:23:44.571Z,92.03
2019-01-28T06:24:44.673Z,92.08
2019-01-28T06:25:44.647Z,91.95
2019-01-28T06:26:44.811Z,92
2019-01-28T06:27:44.570Z,92.21
2019-01-28T06:28:44.518Z,92.17
2019-01-28T06:29:46.346Z,92.2
2019-01-28T06:30:44.668Z,92.23
2019-01-28T06:31:44.561Z,91.98
2019-01-28T06:32:44.635Z,91.88
2019-01-28T06:33:44.837Z,91.83
2019-01-28T06:34:44.850Z,91.9
2019-01-28T06:35:45.491Z,91.78
2019-01-28T06:36:45.083Z,91.83
2019-01-28T06:37:44.537Z,91.94
2019-01-28T06:38:44.540Z,91.84
2019-01-28T06:39:44.516Z,91.81
2019-01-28T06:40:45.090Z,91.79
2019-01-28T06:41:45.212Z,91.9
2019-01-28T06:42:44.504Z,92.13
2019-01-28T06:43:44.460Z,92.14
2019-01-28T06:44:44.635Z,92
2019-01-28T06:45:44.527Z,92.13
2019-01-28T06:46:44.639Z,92.09
2019-01-28T06:47:46.766Z,92.09
2019-01-28T06:48:45.145Z,92.04
2019-01-28T06:49:44.618Z,92.12
2019-01-28T06:50:44.500Z,92.03
2019-01-28T06:51:44.531Z,91.97
2019-01-28T06:52:44.582Z,92.07
2019-01-28T06:53:45.189Z,92.07
2019-01-28T06:54:44.493Z,91.92
2019-01-28T06:55:44.584Z,92.04
2019-01-28T06:56:45.001Z,91.95
2019-01-28T06:57:44.491Z,91.92
2019-01-28T06:58:44.722Z,91.94
2019-01-28T06:59:44.718Z,92.04
2019-01-28T07:00:44.722Z,91.9
2019-01-28T07:01:44.545Z,91.89
2019-01-28T07:02:44.928Z,91.87
2019-01-28T07:03:44.526Z,91.8
2019-01-28T07:04:44.743Z,91.69
2019-01-28T07:05:44.614Z,91.62
2019-01-28T07:06:44.661Z,91.68
2019-01-28T07:07:44.518Z,91.65
2019-01-28T07:08:44.576Z,91.68
2019-01-28T07:09:44.562Z,91.91
2019-01-28T07:10:44.509Z,92.08
2019-01-28T07:11:44.452Z,91.93
2019-01-28T07:12:44.676Z,91.79
2019-01-28T07:13:44.479Z,91.93
2019-01-28T07:14:44.530Z,91.93
2019-01-28T07:15:46.263Z,91.92
2019-01-28T07:16:44.723Z,92
2019-01-28T07:17:44.599Z,92.01
2019-01-28T07:18:44.526Z,92.06
2019-01-28T07:19:44.477Z,92.01
2019-01-28T07:20:44.485Z,92.15
2019-01-28T07:21:44.441Z,92.14
2019-01-28T07:22:44.423Z,92.17
2019-01-28T07:23:44.531Z,92.31
2019-01-28T07:24:44.694Z,92.41
2019-01-28T07:25:44.594Z,92.36
2019-01-28T07:26:44.452Z,92.49
2019-01-28T07:27:44.572Z,92.55
2019-01-28T07:28:44.433Z,92.72
2019-01-28T07:29:44.405Z,92.69
2019-01-28T07:30:45.025Z,92.71
2019-01-28T07:31:44.539Z,92.71
2019-01-28T07:32:44.466Z,92.93
2019-01-28T07:33:44.439Z,92.8
2019-01-28T07:34:44.679Z,92.73
2019-01-28T07:35:45.130Z,92.72
2019-01-28T07:36:44.423Z,92.84
2019-01-28T07:37:44.538Z,93.05
2019-01-28T07:38:44.675Z,92.69
2019-01-28T07:39:44.461Z,92.77
2019-01-28T07:40:44.426Z,92.9
2019-01-28T07:41:44.496Z,92.87
2019-01-28T07:42:44.467Z,92.92
2019-01-28T07:43:44.471Z,93.06
2019-01-28T07:44:44.464Z,93.04
2019-01-28T07:45:45.617Z,93.07
2019-01-28T07:46:44.522Z,93.13
2019-01-28T07:47:44.433Z,93.13
2019-01-28T07:48:44.474Z,93.09
2019-01-28T07:49:44.439Z,93.12
2019-01-28T07:50:44.424Z,93.09
2019-01-28T07:51:44.442Z,92.98
2019-01-28T07:52:44.393Z,93.23
2019-01-28T07:53:44.459Z,93.29
2019-01-28T07:54:44.500Z,93.01
2019-01-28T07:55:44.712Z,93.04
2019-01-28T07:56:44.389Z,93.02
2019-01-28T07:57:44.401Z,93.02
2019-01-28T07:58:44.501Z,93.09
2019-01-28T07:59:44.383Z,93.06
2019-01-28T08:00:44.925Z,93.12
2019-01-28T08:01:44.625Z,93.21
2019-01-28T08:02:45.252Z,93.03
2019-01-28T08:03:44.392Z,93
2019-01-28T08:04:44.957Z,93.19
2019-01-28T08:05:44.425Z,93.17
2019-01-28T08:06:44.968Z,93.09
2019-01-28T08:07:44.521Z,93.14
2019-01-28T08:08:44.582Z,93.17
2019-01-28T08:09:44.689Z,92.85
2019-01-28T08:10:44.428Z,92.81
2019-01-28T08:11:44.706Z,92.89
2019-01-28T08:12:45.109Z,92.86
2019-01-28T08:13:44.350Z,92.66
2019-01-28T08:14:44.612Z,92.35
2019-01-28T08:15:44.394Z,92.49
2019-01-28T08:16:44.832Z,92.37
2019-01-28T08:17:44.410Z,92.04
2019-01-28T08:18:44.497Z,92.11
2019-01-28T08:19:44.496Z,92.22
2019-01-28T08:20:45.060Z,92.01
2019-01-28T08:21:44.769Z,91.92
2019-01-28T08:22:44.442Z,91.99
2019-01-28T08:23:44.344Z,91.92
2019-01-28T08:24:44.381Z,91.8
2019-01-28T08:25:45.238Z,92.01
2019-01-28T08:26:44.719Z,92.03
2019-01-28T08:27:44.483Z,92.15
2019-01-28T08:28:44.363Z,92.2
2019-01-28T08:29:44.324Z,92.24
2019-01-28T08:30:44.378Z,92
2019-01-28T08:31:44.401Z,92.18
2019-01-28T08:32:44.642Z,92.15
2019-01-28T08:33:44.338Z,92.04
2019-01-28T08:34:44.665Z,91.87
2019-01-28T08:35:44.670Z,91.92
2019-01-28T08:36:44.474Z,91.67
2019-01-28T08:37:44.364Z,91.73
2019-01-28T08:38:44.379Z,91.81
2019-01-28T08:39:44.598Z,91.6
2019-01-28T08:40:44.623Z,91.3
2019-01-28T08:41:44.672Z,91.33
2019-01-28T08:42:44.463Z,91.32
2019-01-28T08:43:45.494Z,91.41
2019-01-28T08:44:46.132Z,91.51
2019-01-28T08:45:44.432Z,91.3
2019-01-28T08:46:44.378Z,91.39
2019-01-28T08:47:44.319Z,91.28
2019-01-28T08:48:45.151Z,91.2
2019-01-28T08:49:44.606Z,91.13
2019-01-28T08:50:44.296Z,91.31
2019-01-28T08:51:44.761Z,91.02
2019-01-28T08:52:46.140Z,91.25
2019-01-28T08:53:44.375Z,91.1
2019-01-28T08:54:44.305Z,91.05
2019-01-28T08:55:45.006Z,91.06
2019-01-28T08:56:45.198Z,90.88
2019-01-28T08:57:44.578Z,90.91
2019-01-28T08:58:44.596Z,90.78
2019-01-28T08:59:44.688Z,90.75
2019-01-28T09:00:44.434Z,90.6
2019-01-28T09:01:45.014Z,90.57
2019-01-28T09:02:44.820Z,90.77
2019-01-28T09:03:45.026Z,90.76
2019-01-28T09:04:44.542Z,90.57
2019-01-28T09:05:44.313Z,90.59
2019-01-28T09:06:44.360Z,90.62
2019-01-28T09:07:44.301Z,90.72
2019-01-28T09:08:44.372Z,90.85
2019-01-28T09:09:44.397Z,90.7
2019-01-28T09:10:44.568Z,89.94
2019-01-28T09:11:44.294Z,90
2019-01-28T09:12:44.358Z,90.15
2019-01-28T09:13:44.274Z,90.29
2019-01-28T09:14:44.330Z,90.33
2019-01-28T09:15:44.710Z,90.16
2019-01-28T09:16:44.329Z,90.24
2019-01-28T09:17:45.150Z,90.1
2019-01-28T09:18:44.518Z,89.92
2019-01-28T09:19:44.537Z,89.92
2019-01-28T09:20:44.344Z,89.87
2019-01-28T09:21:44.440Z,89.91
2019-01-28T09:22:44.291Z,89.97
2019-01-28T09:23:44.445Z,90.08
2019-01-28T09:24:44.409Z,90.17
2019-01-28T09:25:44.359Z,90.17
2019-01-28T09:26:44.469Z,89.87
2019-01-28T09:27:44.251Z,89.83
2019-01-28T09:28:44.432Z,89.63
2019-01-28T09:29:44.267Z,89.53
2019-01-28T09:30:46.336Z,89.53
2019-01-28T09:31:44.376Z,89.43
2019-01-28T09:32:44.352Z,89.55
2019-01-28T09:33:44.219Z,89.78
2019-01-28T09:34:44.376Z,89.78
2019-01-28T09:35:44.393Z,89.57
2019-01-28T09:36:44.338Z,89.36
2019-01-28T09:37:44.459Z,89.38
2019-01-28T09:38:44.332Z,89.44
2019-01-28T09:39:44.460Z,89.15
2019-01-28T09:40:44.470Z,88.77
2019-01-28T09:41:44.468Z,88.93
2019-01-28T09:42:44.338Z,89.12
2019-01-28T09:43:44.486Z,89.2
2019-01-28T09:44:44.240Z,89.36
2019-01-28T09:45:47.639Z,89.24
2019-01-28T09:46:44.508Z,89.1
2019-01-28T09:47:46.065Z,89.35
2019-01-28T09:48:44.526Z,89.23
2019-01-28T09:49:44.530Z,89.17
2019-01-28T09:50:44.285Z,89.1
2019-01-28T09:51:44.405Z,88.94
2019-01-28T09:52:44.209Z,88.97
2019-01-28T09:53:44.312Z,88.93
2019-01-28T09:54:44.370Z,88.82
2019-01-28T09:55:44.280Z,88.76
2019-01-28T09:56:44.265Z,88.83
2019-01-28T09:57:44.223Z,88.86
2019-01-28T09:58:44.412Z,89.22
2019-01-28T09:59:44.343Z,89.29
2019-01-28T10:00:44.204Z,89.34
2019-01-28T10:01:44.268Z,89.3
2019-01-28T10:02:44.411Z,89.08
2019-01-28T10:03:44.615Z,88.85
2019-01-28T10:04:44.324Z,88.77
2019-01-28T10:05:44.734Z,88.78
2019-01-28T10:06:44.542Z,88.72
2019-01-28T10:07:44.183Z,88.78
2019-01-28T10:08:44.307Z,88.77
2019-01-28T10:09:44.191Z,88.82
2019-01-28T10:10:44.182Z,88.9
2019-01-28T10:11:44.276Z,89.14
2019-01-28T10:12:44.183Z,89.11
2019-01-28T10:13:44.492Z,89.06
2019-01-28T10:14:44.374Z,89.07
2019-01-28T10:15:44.190Z,88.93
2019-01-28T10:16:44.212Z,88.7
2019-01-28T10:17:44.415Z,88.94
2019-01-28T10:18:44.522Z,88.81
2019-01-28T10:19:44.438Z,88.85
2019-01-28T10:20:44.691Z,88.92
2019-01-28T10:21:44.299Z,88.76
2019-01-28T10:22:44.555Z,88.75
2019-01-28T10:23:44.179Z,88.73
2019-01-28T10:24:44.199Z,88.59
2019-01-28T10:25:44.154Z,88.38
2019-01-28T10:26:44.175Z,88.63
2019-01-28T10:27:44.158Z,88.61
2019-01-28T10:28:44.192Z,88.61
2019-01-28T10:29:44.314Z,88.81
2019-01-28T10:30:44.167Z,88.93
2019-01-28T10:31:44.383Z,88.89
2019-01-28T10:32:44.270Z,88.96
2019-01-28T10:33:44.184Z,88.96
2019-01-28T10:34:44.244Z,89
2019-01-28T10:35:44.151Z,88.98
2019-01-28T10:36:44.164Z,88.9
2019-01-28T10:37:44.370Z,88.89
2019-01-28T10:38:44.217Z,88.6
2019-01-28T10:39:44.200Z,88.82
2019-01-28T10:40:44.448Z,89.28
2019-01-28T10:41:44.179Z,89.35
2019-01-28T10:42:44.175Z,89.37
2019-01-28T10:43:44.486Z,89.4
2019-01-28T10:44:44.646Z,89.55
2019-01-28T10:45:44.436Z,89.45
2019-01-28T10:46:44.440Z,89.38
2019-01-28T10:47:44.336Z,89.25
2019-01-28T10:48:49.484Z,89.15
2019-01-28T10:49:44.211Z,89.08
2019-01-28T10:50:44.517Z,89.39
2019-01-28T10:51:44.161Z,89.28
2019-01-28T10:52:44.549Z,89.13
2019-01-28T10:53:44.429Z,89.53
2019-01-28T10:54:44.359Z,89.55
2019-01-28T10:55:44.625Z,89.59
2019-01-28T10:56:44.457Z,89.7
2019-01-28T10:57:44.518Z,89.93
2019-01-28T10:58:44.406Z,89.6
2019-01-28T10:59:45.106Z,89.62
2019-01-28T11:00:44.288Z,89.74
2019-01-28T11:01:45.798Z,89.73
2019-01-28T11:02:44.147Z,89.68
2019-01-28T11:03:44.370Z,89.91
2019-01-28T11:04:44.801Z,89.94
2019-01-28T11:05:44.269Z,89.84
2019-01-28T11:06:44.135Z,90.03
2019-01-28T11:07:44.305Z,90.06
2019-01-28T11:08:46.522Z,89.99
2019-01-28T11:09:44.451Z,90.11
2019-01-28T11:10:45.364Z,90.27
2019-01-28T11:14:44.254Z,90.36
2019-01-28T11:15:44.651Z,90.33
2019-01-28T11:16:44.105Z,90.46
2019-01-28T11:17:44.381Z,90.29
2019-01-28T11:18:45.770Z,90.36
2019-01-28T11:19:45.294Z,90.45
2019-01-28T11:20:44.393Z,90.38
2019-01-28T11:21:44.336Z,90.33
2019-01-28T11:22:44.228Z,90.28
2019-01-28T11:23:45.305Z,90.1
2019-01-28T11:24:44.578Z,90.25
2019-01-28T11:25:44.155Z,90.66
2019-01-28T11:26:44.759Z,90.71
2019-01-28T11:27:45.228Z,90.84
2019-01-28T11:28:46.008Z,90.65
2019-01-28T11:29:44.470Z,90.62
2019-01-28T11:30:44.232Z,90.56
2019-01-28T11:31:46.491Z,90.59
2019-01-28T11:32:44.974Z,90.91
2019-01-28T11:33:45.340Z,90.8
2019-01-28T11:34:44.365Z,90.75
2019-01-28T11:35:45.168Z,90.73
2019-01-28T11:36:44.319Z,90.37
2019-01-28T11:37:44.183Z,90.41
2019-01-28T11:38:44.304Z,90.66
2019-01-28T11:39:45.105Z,90.79
2019-01-28T11:40:44.105Z,90.48
2019-01-28T11:41:44.552Z,90.64
2019-01-28T11:42:44.133Z,90.52
2019-01-28T11:43:44.352Z,90.76
2019-01-28T11:44:44.645Z,90.37
2019-01-28T11:45:45.575Z,90.59
2019-01-28T11:46:45.915Z,90.71
2019-01-28T11:47:44.250Z,90.54
2019-01-28T11:48:45.172Z,90.68
2019-01-28T11:49:44.942Z,90.72
2019-01-28T11:50:44.106Z,90.91
2019-01-28T11:51:44.057Z,90.47
2019-01-28T11:53:44.060Z,90.54
2019-01-28T11:54:44.470Z,90.68
2019-01-28T11:55:44.156Z,90.84
2019-01-28T11:56:44.141Z,90.86
2019-01-28T11:57:44.199Z,90.75
2019-01-28T11:58:44.114Z,90.92
2019-01-28T11:59:44.175Z,91.08
2019-01-28T12:00:43.998Z,90.96
2019-01-28T12:01:44.214Z,90.83
2019-01-28T12:02:44.312Z,90.6
2019-01-28T12:03:45.891Z,90.65
2019-01-28T12:04:45.484Z,90.91
2019-01-28T12:05:44.047Z,90.84
2019-01-28T12:06:45.420Z,90.67
2019-01-28T12:07:44.054Z,90.62
2019-01-28T12:08:44.010Z,90.39
2019-01-28T12:09:44.004Z,90.36
2019-01-28T12:10:44.025Z,90.26
2019-01-28T12:11:44.085Z,90.27
2019-01-28T12:12:44.067Z,90.31
2019-01-28T12:13:44.120Z,90.37
2019-01-28T12:14:44.020Z,90.29
2019-01-28T12:15:44.027Z,90.17
2019-01-28T12:16:44.032Z,90.26
2019-01-28T12:17:44.045Z,90.27
2019-01-28T12:18:44.136Z,90.28
2019-01-28T12:19:44.437Z,90.18
2019-01-28T12:20:44.715Z,90.12
2019-01-28T12:21:44.053Z,90.42
2019-01-28T12:22:44.256Z,90.55
2019-01-28T12:23:44.956Z,90.46
2019-01-28T12:24:44.019Z,90.57
2019-01-28T12:25:43.991Z,90.39
2019-01-28T12:26:44.175Z,90.52
2019-01-28T12:27:44.219Z,90.34
2019-01-28T12:28:44.092Z,90.45
2019-01-28T12:29:44.061Z,90.67
2019-01-28T12:30:44.073Z,90.65
2019-01-28T12:31:44.212Z,90.83
2019-01-28T12:32:44.323Z,90.93
2019-01-28T12:33:44.005Z,90.73
2019-01-28T12:34:44.003Z,90.55
2019-01-28T12:35:44.249Z,90.45
2019-01-28T12:36:43.978Z,90.54
2019-01-28T12:37:44.532Z,90.97
2019-01-28T12:38:44.068Z,91.04
2019-01-28T12:39:45.180Z,91.38
2019-01-28T12:40:43.984Z,91.62
2019-01-28T12:41:43.944Z,91.52
2019-01-28T12:42:43.983Z,91.59
2019-01-28T12:43:43.987Z,91.65
2019-01-28T12:44:44.653Z,91.48
2019-01-28T12:45:44.000Z,91.6
2019-01-28T12:46:43.983Z,91.64
2019-01-28T12:48:44.053Z,91.75
2019-01-28T12:49:44.884Z,91.95
2019-01-28T12:50:45.006Z,92.08
2019-01-28T12:51:44.028Z,92.22
2019-01-28T12:52:44.511Z,92.23
2019-01-28T12:53:44.815Z,92.3
2019-01-28T12:54:44.118Z,92.4
2019-01-28T12:55:47.204Z,92.28
2019-01-28T12:56:49.860Z,92.43
2019-01-28T12:57:43.927Z,92.5
2019-01-28T12:58:44.656Z,92.32
2019-01-28T12:59:43.917Z,92.23
2019-01-28T13:00:43.890Z,92.24
2019-01-28T13:01:44.230Z,92.45
2019-01-28T13:02:43.999Z,92.5
2019-01-28T13:03:44.492Z,92.36
2019-01-28T13:04:45.362Z,92.22
2019-01-28T13:05:49.652Z,92.11